Time;durP1;ratioP1;P1;durP2;ratioP2;P2;SDS_P1;SDS_P2;PMS_P1;PMS_P2;Temp;Humidity;BMP_temperature;BMP_pressure;BME280_temperature;BME280_humidity;BME280_pressure;Samples;Min_cycle;Max_cycle;Signal;HPM_P1;HPM_P2
2023/03/15 00:04:54;;;;;;;14.15;3.08;;;;;;;1.85;62.18;99562.69;10428622;28;20118;-62
2023/03/15 00:09:56;;;;;;;13.52;3.00;;;;;;;1.74;62.13;99577.66;10428529;28;20056;-62
2023/03/15 00:14:58;;;;;;;15.00;3.05;;;;;;;1.63;62.08;99582.25;10426241;28;20040;-62
2023/03/15 00:20:00;;;;;;;11.95;2.65;;;;;;;1.56;62.48;99597.09;10427043;28;20696;-61
2023/03/15 00:25:02;;;;;;;13.15;2.83;;;;;;;1.55;62.24;99597.97;10428270;28;20390;-61
2023/03/15 00:30:04;;;;;;;17.17;3.10;;;;;;;1.51;62.71;99608.38;10425755;28;20049;-62
2023/03/15 00:35:06;;;;;;;14.00;2.95;;;;;;;1.34;62.97;99612.28;10428385;28;20067;-62
2023/03/15 00:40:11;;;;;;;14.32;3.00;;;;;;;1.22;63.21;99610.03;10425984;28;20045;-62
2023/03/15 00:45:12;;;;;;;9.73;2.80;;;;;;;1.13;63.51;99605.16;10429637;28;20052;-61
2023/03/15 00:50:14;;;;;;;18.38;3.22;;;;;;;1.11;63.33;99598.34;10425500;28;20728;-62
2023/03/15 00:55:18;;;;;;;12.75;3.30;;;;;;;1.08;63.50;99612.16;10428772;28;20048;-61
2023/03/15 01:00:23;;;;;;;17.08;2.97;;;;;;;0.91;64.15;99624.59;10427517;28;20044;-62
2023/03/15 01:05:25;;;;;;;16.55;3.22;;;;;;;0.91;64.06;99634.91;10426002;28;20052;-62
2023/03/15 01:10:27;;;;;;;9.82;2.72;;;;;;;0.94;64.15;99636.56;10426508;28;20493;-62
2023/03/15 01:15:29;;;;;;;18.35;3.50;;;;;;;0.98;63.83;99626.16;10425564;28;20056;-61
2023/03/15 01:20:31;;;;;;;9.60;2.60;;;;;;;0.93;63.97;99627.97;10424226;28;20053;-61
2023/03/15 01:25:33;;;;;;;14.10;3.03;;;;;;;0.94;63.94;99636.56;10430048;28;20079;-61
2023/03/15 01:30:35;;;;;;;13.95;3.10;;;;;;;0.88;64.15;99642.72;10435136;28;20072;-62
2023/03/15 01:35:36;;;;;;;14.25;3.13;;;;;;;0.81;64.44;99642.91;10434764;28;20315;-61
2023/03/15 01:40:43;;;;;;;11.63;2.85;;;;;;;0.84;64.26;99638.53;10435119;28;20531;-63
2023/03/15 01:46:00;;;;;;;9.05;2.50;;;;;;;0.66;64.94;99633.84;10436415;28;20045;-62
2023/03/15 01:51:09;;;;;;;10.18;2.80;;;;;;;0.79;64.67;99634.38;10432249;28;20484;-62
2023/03/15 01:56:12;;;;;;;12.50;2.80;;;;;;;0.76;64.84;99629.31;10438592;28;20041;-61
2023/03/15 02:01:15;;;;;;;17.52;2.95;;;;;;;0.89;64.51;99636.66;10433436;28;20515;-62
2023/03/15 02:06:18;;;;;;;14.27;3.00;;;;;;;0.84;64.35;99625.66;10434289;28;20328;-61
2023/03/15 02:11:22;;;;;;;13.32;3.75;;;;;;;0.90;64.50;99632.38;10432123;28;20068;-62
2023/03/15 02:16:24;;;;;;;13.18;2.70;;;;;;;0.89;64.42;99618.66;10433938;28;20041;-62
2023/03/15 02:21:55;;;;;;;12.30;2.90;;;;;;;0.82;64.91;99640.28;10432101;28;20080;-62
2023/03/15 02:26:57;;;;;;;9.23;2.47;;;;;;;0.92;64.22;99633.19;10420196;28;20072;-62
2023/03/15 02:32:03;;;;;;;15.57;3.35;;;;;;;0.94;64.37;99645.13;10430625;28;20383;-62
2023/03/15 02:37:05;;;;;;;11.13;3.13;;;;;;;1.01;64.55;99638.97;10428011;28;20056;-62
2023/03/15 02:42:07;;;;;;;12.70;3.20;;;;;;;1.00;64.36;99647.56;10429540;28;20044;-62
2023/03/15 02:47:15;;;;;;;16.55;3.90;;;;;;;0.99;64.73;99653.56;10427514;28;20417;-62
2023/03/15 02:52:17;;;;;;;11.85;3.10;;;;;;;0.88;64.75;99660.72;10429581;28;20347;-62
2023/03/15 02:57:19;;;;;;;12.45;3.50;;;;;;;1.03;64.61;99664.66;10428916;28;20048;-62
2023/03/15 03:02:21;;;;;;;13.65;3.85;;;;;;;1.11;64.38;99652.44;10431893;28;20065;-62
2023/03/15 03:07:22;;;;;;;20.88;4.35;;;;;;;1.09;64.22;99649.06;10436491;28;20060;-62
2023/03/15 03:12:24;;;;;;;14.90;4.65;;;;;;;1.02;64.44;99655.22;10415915;28;20086;-62
2023/03/15 03:17:26;;;;;;;11.70;3.88;;;;;;;1.00;64.35;99663.00;10434545;28;20048;-62
2023/03/15 03:22:27;;;;;;;18.70;4.60;;;;;;;1.10;64.40;99664.44;10393316;28;1203828;-62
2023/03/15 03:27:29;;;;;;;17.48;4.40;;;;;;;1.08;64.30;99667.94;10437532;28;20498;-62
2023/03/15 03:32:31;;;;;;;13.75;4.60;;;;;;;1.10;64.41;99672.19;10439112;28;20224;-62
2023/03/15 03:37:34;;;;;;;12.70;4.63;;;;;;;1.14;64.26;99678.94;10436543;28;20573;-62
2023/03/15 03:42:36;;;;;;;13.73;5.47;;;;;;;1.13;64.50;99700.44;10436928;28;20131;-61
2023/03/15 03:47:37;;;;;;;11.73;5.35;;;;;;;1.23;64.33;99706.19;10440156;28;20543;-62
2023/03/15 03:52:42;;;;;;;14.15;5.43;;;;;;;1.32;64.09;99709.38;10436674;28;20048;-62
2023/03/15 03:57:44;;;;;;;15.90;5.57;;;;;;;1.51;63.66;99709.75;10436306;28;20045;-62
2023/03/15 04:02:46;;;;;;;16.75;5.53;;;;;;;1.54;63.47;99719.13;10434207;28;20052;-62
2023/03/15 04:07:48;;;;;;;13.70;5.38;;;;;;;1.70;63.58;99715.25;10416037;28;20052;-61
2023/03/15 04:12:49;;;;;;;12.30;5.38;;;;;;;1.77;63.49;99719.34;10428741;28;20045;-62
2023/03/15 04:17:54;;;;;;;16.75;5.80;;;;;;;1.83;63.42;99714.84;10432019;28;20037;-62
2023/03/15 04:22:56;;;;;;;14.15;5.40;;;;;;;1.85;63.17;99741.44;10387507;28;20515;-61
2023/03/15 04:27:58;;;;;;;16.60;6.03;;;;;;;1.87;63.23;99738.84;10387133;28;20045;-63
2023/03/15 04:33:02;;;;;;;17.50;5.95;;;;;;;1.98;63.14;99736.81;10403361;28;20049;-62
2023/03/15 04:38:04;;;;;;;15.70;6.03;;;;;;;2.09;63.15;99739.94;10387906;28;20045;-62
2023/03/15 04:43:07;;;;;;;25.25;6.25;;;;;;;2.08;62.96;99735.66;10387291;28;20042;-62
2023/03/15 04:48:09;;;;;;;21.65;6.40;;;;;;;1.96;63.63;99730.84;10389264;28;20044;-62
2023/03/15 04:53:11;;;;;;;14.05;6.30;;;;;;;1.99;63.64;99726.44;10386303;28;20633;-61
2023/03/15 04:58:13;;;;;;;15.57;6.90;;;;;;;1.77;64.28;99732.22;10387616;28;20085;-62
2023/03/15 05:03:14;;;;;;;18.77;7.22;;;;;;;1.58;64.96;99731.91;10389129;28;20053;-62
2023/03/15 05:08:16;;;;;;;15.23;7.07;;;;;;;1.43;65.60;99723.72;10386665;28;20057;-61
2023/03/15 05:13:19;;;;;;;16.33;6.97;;;;;;;1.33;66.15;99729.13;10384935;28;20528;-62
2023/03/15 05:18:21;;;;;;;10.80;5.82;;;;;;;1.28;66.70;99728.38;10386142;28;20402;-62
2023/03/15 05:23:23;;;;;;;9.55;5.50;;;;;;;1.11;67.56;99737.41;10427262;28;20056;-61
2023/03/15 05:28:25;;;;;;;10.77;5.35;;;;;;;1.04;67.63;99751.31;10425101;28;20049;-62
2023/03/15 05:33:27;;;;;;;9.95;5.45;;;;;;;0.94;68.03;99737.81;10426609;28;20401;-62
2023/03/15 05:38:30;;;;;;;7.90;4.70;;;;;;;0.80;68.72;99755.31;10410249;28;20352;-61
2023/03/15 05:43:31;;;;;;;9.57;5.13;;;;;;;0.94;68.22;99757.56;10413334;28;20136;-62
2023/03/15 05:48:33;;;;;;;10.40;4.65;;;;;;;0.80;69.05;99768.19;10423601;28;20080;-62
2023/03/15 05:53:35;;;;;;;9.30;5.15;;;;;;;0.79;69.19;99778.53;10425578;28;20048;-61
2023/03/15 05:58:36;;;;;;;11.73;5.57;;;;;;;0.87;68.93;99774.06;10430132;28;20075;-62
2023/03/15 06:03:38;;;;;;;11.50;5.20;;;;;;;0.94;69.11;99780.72;10429200;28;20053;-61
2023/03/15 06:08:40;;;;;;;10.80;5.50;;;;;;;0.75;70.03;99795.75;10443385;28;20061;-61
2023/03/15 06:13:42;;;;;;;11.95;6.05;;;;;;;0.95;69.19;99788.41;10430924;28;20055;-61
2023/03/15 06:18:43;;;;;;;11.93;6.90;;;;;;;0.85;69.47;99796.41;10435562;28;20063;-62
2023/03/15 06:23:45;;;;;;;15.63;6.82;;;;;;;0.83;69.78;99814.44;10438511;28;20562;-62
2023/03/15 06:28:47;;;;;;;10.98;5.95;;;;;;;0.89;69.97;99813.47;10433305;28;20051;-62
2023/03/15 06:33:48;;;;;;;10.05;5.65;;;;;;;1.09;69.38;99819.03;10433256;28;20110;-61
2023/03/15 06:38:53;;;;;;;14.48;5.82;;;;;;;1.22;69.03;99813.53;10432178;28;20544;-62
2023/03/15 06:43:55;;;;;;;11.82;5.55;;;;;;;1.22;69.13;99818.69;10448723;28;20223;-62
2023/03/15 06:48:56;;;;;;;10.40;5.40;;;;;;;1.27;69.07;99819.44;10430976;28;20063;-62
2023/03/15 06:53:58;;;;;;;11.90;6.00;;;;;;;1.29;68.91;99825.41;10429701;28;20055;-61
2023/03/15 06:58:59;;;;;;;12.32;6.68;;;;;;;1.49;69.01;99822.31;10434111;28;20048;-63
2023/03/15 07:04:01;;;;;;;11.70;6.28;;;;;;;1.72;68.30;99839.78;10432668;28;20049;-61
2023/03/15 07:09:04;;;;;;;14.80;6.40;;;;;;;1.72;68.28;99847.53;10431603;28;20599;-61
2023/03/15 07:14:06;;;;;;;11.07;5.53;;;;;;;1.82;68.30;99856.72;10433194;28;20041;-62
2023/03/15 07:19:07;;;;;;;11.63;6.00;;;;;;;2.11;67.68;99861.97;10430227;28;20053;-61
2023/03/15 07:24:09;;;;;;;12.65;5.63;;;;;;;2.12;67.64;99866.22;10428645;28;20037;-62
2023/03/15 07:29:11;;;;;;;15.63;6.85;;;;;;;2.37;67.48;99884.47;10430350;28;20052;-62
2023/03/15 07:34:13;;;;;;;13.30;5.95;;;;;;;2.34;67.23;99900.88;10430088;28;20042;-61
2023/03/15 07:39:15;;;;;;;11.30;5.22;;;;;;;2.25;67.37;99901.16;10411492;28;20523;-62
2023/03/15 07:44:16;;;;;;;10.65;5.90;;;;;;;2.45;67.35;99913.50;10429396;28;20143;-62
2023/03/15 07:49:18;;;;;;;12.98;5.93;;;;;;;2.72;67.10;99923.94;10426768;28;20503;-62
2023/03/15 07:54:20;;;;;;;12.40;5.78;;;;;;;2.93;66.61;99923.31;10433700;28;20488;-62
2023/03/15 07:59:22;;;;;;;11.02;5.28;;;;;;;3.17;66.06;99939.00;10430079;28;20189;-62
2023/03/15 08:04:24;;;;;;;10.77;5.03;;;;;;;3.46;65.48;99944.13;10429004;28;20041;-62
2023/03/15 08:09:26;;;;;;;14.15;5.15;;;;;;;3.55;65.67;99955.03;10424521;28;20195;-62
2023/03/15 08:14:30;;;;;;;10.63;5.35;;;;;;;3.66;65.26;99957.31;10423643;28;20051;-61
2023/03/15 08:19:32;;;;;;;9.38;5.05;;;;;;;3.68;65.29;99963.28;10432398;28;20730;-62
2023/03/15 08:24:34;;;;;;;10.90;5.32;;;;;;;3.81;64.76;99980.94;10422602;28;20585;-62
2023/03/15 08:29:36;;;;;;;14.15;5.82;;;;;;;3.62;65.03;99992.72;10426193;28;20052;-62
2023/03/15 08:34:37;;;;;;;9.80;5.10;;;;;;;3.82;64.99;99995.53;10425449;28;20059;-62
2023/03/15 08:39:39;;;;;;;10.32;4.90;;;;;;;3.92;64.51;100003.91;10426693;28;20107;-62
2023/03/15 08:44:41;;;;;;;6.97;4.78;;;;;;;4.13;64.17;100003.22;10352653;28;20384;-62
2023/03/15 08:49:43;;;;;;;12.38;4.60;;;;;;;4.65;63.29;100016.13;10344726;28;20050;-62
2023/03/15 08:54:44;;;;;;;10.27;5.13;;;;;;;4.96;62.41;100022.84;10342996;28;20076;-61
2023/03/15 08:59:46;;;;;;;6.05;4.50;;;;;;;5.18;62.32;100031.53;10344638;28;20494;-68
2023/03/15 09:04:48;;;;;;;5.05;3.88;;;;;;;5.45;61.58;100036.53;10343893;28;20049;-68
2023/03/15 09:09:53;;;;;;;6.70;4.00;;;;;;;5.44;61.36;100045.25;10347840;28;20155;-69
2023/03/15 09:14:54;;;;;;;5.65;3.50;;;;;;;5.24;60.89;100052.91;10340557;28;20038;-68
2023/03/15 09:19:56;;;;;;;6.15;3.90;;;;;;;5.21;61.02;100044.38;10357294;28;20049;-68
2023/03/15 09:24:58;;;;;;;5.10;3.67;;;;;;;5.47;60.61;100052.06;10397503;28;20049;-68
2023/03/15 09:29:59;;;;;;;6.78;3.65;;;;;;;5.69;59.94;100065.06;10388182;28;20465;-68
2023/03/15 09:35:03;;;;;;;5.75;3.85;;;;;;;5.60;59.73;100063.66;10388803;28;20048;-69
2023/03/15 09:40:07;;;;;;;6.13;3.60;;;;;;;5.66;59.94;100071.22;10373860;28;20054;-68
2023/03/15 09:45:39;;;;;;;4.70;3.03;;;;;;;5.89;55.30;100066.00;10379856;28;20053;-68
2023/03/15 09:51:00;;;;;;;4.35;2.97;;;;;;;5.72;57.17;100072.72;10395992;28;20053;-68
2023/03/15 09:56:02;;;;;;;5.50;3.00;;;;;;;5.85;57.74;100079.16;10391791;28;20081;-68
2023/03/15 10:01:07;;;;;;;4.53;2.70;;;;;;;5.88;56.65;100086.84;10392823;28;20049;-68
2023/03/15 10:06:21;;;;;;;4.03;2.70;;;;;;;5.61;56.93;100088.72;10391749;28;20052;-68
2023/03/15 10:11:41;;;;;;;4.80;3.47;;;;;;;5.75;56.91;100095.97;10394622;28;20328;-69
2023/03/15 10:16:47;;;;;;;7.93;3.80;;;;;;;5.99;56.60;100095.03;10392826;28;20049;-67
2023/03/15 10:21:56;;;;;;;8.15;3.90;;;;;;;6.80;55.20;100081.34;10387204;28;20517;-69
2023/03/15 10:27:05;;;;;;;5.82;3.42;;;;;;;7.00;54.50;100072.69;10375299;28;20356;-68
2023/03/15 10:32:16;;;;;;;6.63;3.10;;;;;;;6.62;53.92;100086.47;10387767;28;20075;-68
2023/03/15 10:37:18;;;;;;;;;;;;;;;6.29;53.35;100081.75;10390924;28;20056;-68
2023/03/15 10:42:27;;;;;;;4.65;2.10;;;;;;;6.32;52.04;100084.22;10391139;28;20108;-68
2023/03/15 10:47:29;;;;;;;5.47;2.55;;;;;;;6.40;53.36;100091.72;10392824;28;20056;-68
2023/03/15 10:52:38;;;;;;;6.45;2.60;;;;;;;6.49;52.80;100100.88;10381512;28;20049;-69
2023/03/15 10:57:51;;;;;;;6.82;2.50;;;;;;;6.53;50.13;100105.06;10391900;28;20805;-68
2023/03/15 11:03:18;;;;;;;6.50;2.60;;;;;;;6.52;51.20;100105.94;10400473;28;20057;-69
2023/03/15 11:08:37;;;;;;;6.65;3.00;;;;;;;6.18;51.13;100112.47;10380812;28;20270;-69
2023/03/15 11:13:41;;;;;;;5.50;2.90;;;;;;;5.91;51.91;100112.66;10391155;28;20045;-69
2023/03/15 11:18:58;;;;;;;6.30;2.88;;;;;;;5.93;50.83;100116.03;10385517;28;20064;-69
2023/03/15 11:24:03;;;;;;;5.53;2.85;;;;;;;6.03;51.54;100114.78;10387003;28;20130;-68
2023/03/15 11:29:15;;;;;;;7.07;3.00;;;;;;;6.02;50.12;100113.94;10387084;28;20502;-68
2023/03/15 11:34:23;;;;;;;4.07;2.70;;;;;;;6.22;48.17;100119.22;10389912;28;20437;-69
2023/03/15 11:39:52;;;;;;;4.55;2.92;;;;;;;6.25;48.05;100119.13;10384441;28;20068;-68
2023/03/15 11:45:22;;;;;;;4.78;3.70;;;;;;;6.53;50.40;100131.03;10389295;28;20059;-68
2023/03/15 11:50:26;;;;;;;5.63;3.67;;;;;;;6.54;49.75;100136.16;10382556;28;20560;-68
2023/03/15 11:55:28;;;;;;;5.35;3.20;;;;;;;6.45;49.52;100138.28;10364657;28;20041;-68
2023/03/15 12:00:30;;;;;;;5.43;3.17;;;;;;;6.75;49.64;100139.66;10387733;28;20055;-68
2023/03/15 12:05:49;;;;;;;6.90;4.00;;;;;;;6.63;48.41;100143.59;10384230;28;20066;-69
2023/03/15 12:10:52;;;;;;;7.45;3.90;;;;;;;6.60;49.11;100151.50;10383794;28;20470;-69
2023/03/15 12:15:54;;;;;;;5.65;4.07;;;;;;;6.89;48.85;100158.13;10379752;28;20045;-68
2023/03/15 12:21:13;;;;;;;5.68;3.78;;;;;;;6.94;46.78;100156.16;10385182;28;20061;-68
2023/03/15 12:26:23;;;;;;;6.30;3.58;;;;;;;7.17;46.92;100156.06;10383461;28;20053;-68
2023/03/15 12:31:25;;;;;;;5.53;3.38;;;;;;;7.27;47.52;100159.09;10384192;28;20053;-68
2023/03/15 12:36:36;;;;;;;6.63;3.50;;;;;;;7.31;44.72;100156.31;10414120;28;20049;-69
2023/03/15 12:41:42;;;;;;;6.15;3.10;;;;;;;7.36;45.80;100150.94;10382516;28;20070;-69
2023/03/15 12:46:44;;;;;;;10.93;2.90;;;;;;;6.93;45.36;100159.69;10383929;28;20053;-69
2023/03/15 12:52:12;;;;;;;5.75;2.55;;;;;;;6.42;43.86;100159.19;10404907;28;20053;-69
2023/03/15 12:57:20;;;;;;;5.88;2.60;;;;;;;6.64;44.15;100160.00;10383501;28;20067;-69
2023/03/15 13:02:33;;;;;;;6.63;2.70;;;;;;;6.90;45.13;100163.25;10412833;28;20061;-68
2023/03/15 13:07:55;;;;;;;4.32;2.30;;;;;;;7.19;44.75;100167.25;10408279;28;20501;-69
2023/03/15 13:12:59;;;;;;;7.00;2.67;;;;;;;7.14;44.60;100153.59;10382805;28;20052;-68
2023/03/15 13:18:16;;;;;;;6.93;2.30;;;;;;;6.75;44.25;100160.44;10399273;28;20045;-69
2023/03/15 13:23:33;;;;;;;6.28;2.30;;;;;;;6.79;43.87;100157.66;10401628;28;20408;-68
2023/03/15 13:28:39;;;;;;;5.35;2.08;;;;;;;6.48;44.01;100161.53;10400235;28;20107;-69
2023/03/15 13:33:40;;;;;;;5.13;2.42;;;;;;;6.53;44.63;100162.22;10404624;28;20060;-69
2023/03/15 13:38:51;;;;;;;7.15;2.42;;;;;;;6.64;43.86;100147.88;10392080;28;20488;-68
2023/03/15 13:43:57;;;;;;;5.60;2.60;;;;;;;7.07;43.79;100155.63;10421902;28;20445;-70
2023/03/15 13:48:59;;;;;;;5.55;2.03;;;;;;;7.60;42.34;100145.50;10416080;28;20045;-69
2023/03/15 13:54:05;;;;;;;4.10;1.95;;;;;;;7.49;41.91;100142.50;10433418;28;20416;-68
2023/03/15 13:59:08;;;;;;;6.93;2.00;;;;;;;7.90;40.71;100154.53;10394183;28;20089;-69
2023/03/15 14:04:17;;;;;;;5.60;2.28;;;;;;;7.83;40.39;100145.31;10394581;28;20037;-69
2023/03/15 14:09:23;;;;;;;6.07;2.40;;;;;;;7.68;41.57;100148.59;10391743;28;20072;-69
2023/03/15 14:14:27;;;;;;;6.30;2.00;;;;;;;7.31;41.76;100151.13;10393087;28;20048;-69
2023/03/15 14:19:31;;;;;;;5.43;2.15;;;;;;;6.91;41.94;100162.38;10388489;28;20391;-69
2023/03/15 14:24:36;;;;;;;7.10;2.15;;;;;;;6.45;41.80;100162.50;10389655;28;20075;-68
2023/03/15 14:29:53;;;;;;;4.60;2.08;;;;;;;6.55;40.87;100163.00;10393463;28;20620;-69
2023/03/15 14:35:18;;;;;;;6.47;2.40;;;;;;;6.53;41.92;100165.63;10392231;28;20048;-69
2023/03/15 14:40:34;;;;;;;6.07;2.20;;;;;;;7.02;39.66;100165.34;10390180;28;20597;-69
2023/03/15 14:45:39;;;;;;;6.55;2.15;;;;;;;7.28;40.59;100179.88;10392707;28;20049;-69
2023/03/15 14:50:43;;;;;;;6.30;2.20;;;;;;;7.39;40.25;100172.44;10398427;28;20053;-68
2023/03/15 14:55:44;;;;;;;4.22;1.92;;;;;;;7.45;40.11;100172.19;10392858;28;20095;-68
2023/03/15 15:00:48;;;;;;;5.32;2.30;;;;;;;7.51;40.13;100169.31;10391581;28;20057;-68
2023/03/15 15:05:50;;;;;;;5.82;2.35;;;;;;;7.56;40.33;100172.56;10390236;28;20405;-68
2023/03/15 15:10:55;;;;;;;4.85;2.20;;;;;;;7.45;39.60;100177.38;10391032;28;20054;-68
2023/03/15 15:15:57;;;;;;;7.25;2.65;;;;;;;7.50;40.34;100185.84;10390760;28;20403;-68
2023/03/15 15:21:01;;;;;;;6.15;2.30;;;;;;;7.59;39.84;100185.44;10398514;28;20462;-68
2023/03/15 15:26:06;;;;;;;8.02;2.10;;;;;;;7.42;39.61;100195.75;10426346;28;20511;-69
2023/03/15 15:31:13;;;;;;;5.03;2.38;;;;;;;7.28;39.67;100198.09;10422736;28;20049;-68
2023/03/15 15:36:37;;;;;;;4.90;2.25;;;;;;;7.31;38.91;100192.75;10429480;28;20092;-68
2023/03/15 15:41:38;;;;;;;5.72;2.40;;;;;;;7.27;40.04;100198.13;10389307;28;20401;-68
2023/03/15 15:46:40;;;;;;;6.53;2.47;;;;;;;7.31;40.24;100197.09;10429606;28;20049;-69
2023/03/15 15:51:44;;;;;;;7.43;2.67;;;;;;;7.33;39.97;100197.88;10414035;28;20075;-68
2023/03/15 15:56:49;;;;;;;6.47;2.28;;;;;;;7.15;40.03;100202.09;10429023;28;20052;-69
2023/03/15 16:01:54;;;;;;;5.57;2.10;;;;;;;7.19;40.29;100201.06;10392785;28;20051;-69
2023/03/15 16:07:02;;;;;;;9.45;2.20;;;;;;;7.18;40.78;100197.59;10387647;28;20411;-69
2023/03/15 16:12:16;;;;;;;6.90;2.42;;;;;;;7.09;39.93;100200.59;10408460;28;20072;-69
2023/03/15 16:17:22;;;;;;;7.47;2.47;;;;;;;6.93;40.42;100194.34;10427271;28;20049;-69
2023/03/15 16:22:25;;;;;;;6.35;2.38;;;;;;;6.91;40.69;100190.97;10420209;28;20538;-69
2023/03/15 16:27:29;;;;;;;7.03;2.30;;;;;;;6.71;40.69;100197.88;10427687;28;20049;-68
2023/03/15 16:32:33;;;;;;;5.40;2.35;;;;;;;6.56;40.46;100201.06;10419513;28;20053;-68
2023/03/15 16:37:45;;;;;;;6.75;2.30;;;;;;;6.45;40.45;100209.25;10427052;28;20562;-68
2023/03/15 16:42:48;;;;;;;7.25;2.10;;;;;;;6.25;40.55;100210.03;10395262;28;20493;-68
2023/03/15 16:47:50;;;;;;;7.38;1.90;;;;;;;6.05;41.56;100207.28;10386512;28;20132;-68
2023/03/15 16:52:55;;;;;;;5.30;1.92;;;;;;;5.88;41.42;100214.84;10387154;28;20045;-68
2023/03/15 16:57:59;;;;;;;6.88;2.03;;;;;;;5.80;41.29;100209.06;10399531;28;20337;-67
2023/03/15 17:03:02;;;;;;;6.03;1.85;;;;;;;5.62;41.46;100225.31;10384939;28;20359;-68
2023/03/15 17:08:03;;;;;;;5.13;2.10;;;;;;;5.50;42.85;100230.91;10386608;28;20080;-68
2023/03/15 17:13:05;;;;;;;5.30;2.28;;;;;;;5.39;44.58;100233.03;10437044;28;20053;-69
2023/03/15 17:18:18;;;;;;;4.38;2.00;;;;;;;5.14;45.22;100247.72;10385500;28;20049;-69
2023/03/15 17:23:20;;;;;;;8.60;3.72;;;;;;;4.93;46.70;100241.47;10385570;28;20436;-68
2023/03/15 17:28:22;;;;;;;6.15;2.80;;;;;;;4.76;47.50;100254.09;10422960;28;20045;-69
2023/03/15 17:33:24;;;;;;;4.55;2.65;;;;;;;4.57;48.75;100271.97;10384866;28;20156;-68
2023/03/15 17:38:31;;;;;;;9.30;2.95;;;;;;;4.42;49.21;100269.81;10369812;28;20295;-69
2023/03/15 17:43:33;;;;;;;9.32;3.28;;;;;;;4.25;49.96;100272.03;10388612;28;20456;-67
2023/03/15 17:48:34;;;;;;;8.32;3.80;;;;;;;4.14;49.99;100271.50;10386507;28;20434;-61
2023/03/15 17:53:38;;;;;;;6.93;3.05;;;;;;;3.99;50.22;100271.94;10361410;28;20049;-62
2023/03/15 17:58:45;;;;;;;7.90;3.30;;;;;;;3.88;51.02;100276.56;10362901;28;20045;-61
2023/03/15 18:03:48;;;;;;;6.15;3.10;;;;;;;3.80;51.66;100283.66;10381933;28;20081;-61
2023/03/15 18:08:50;;;;;;;8.00;3.58;;;;;;;3.69;52.04;100289.09;10385901;28;20743;-62
2023/03/15 18:13:52;;;;;;;9.10;4.53;;;;;;;3.54;52.33;100288.63;10391037;28;20045;-61
2023/03/15 18:18:54;;;;;;;8.82;4.90;;;;;;;3.33;52.92;100300.38;10387908;28;20107;-62
2023/03/15 18:23:56;;;;;;;14.52;5.20;;;;;;;3.23;53.47;100300.63;10390792;28;20620;-61
2023/03/15 18:28:57;;;;;;;8.38;4.28;;;;;;;3.15;54.37;100299.97;10395869;28;20052;-64
2023/03/15 18:34:02;;;;;;;8.82;4.20;;;;;;;3.10;54.44;100301.78;10389460;28;20486;-61
2023/03/15 18:39:05;;;;;;;16.60;5.03;;;;;;;2.97;54.44;100307.25;10393820;28;20548;-62
2023/03/15 18:44:09;;;;;;;11.68;4.38;;;;;;;2.80;55.04;100304.22;10394174;28;20111;-62
2023/03/15 18:49:11;;;;;;;9.98;4.20;;;;;;;2.76;55.13;100310.34;10387961;28;20072;-61
2023/03/15 18:54:15;;;;;;;10.63;4.68;;;;;;;2.69;55.51;100306.19;10380127;28;20049;-60
2023/03/15 18:59:17;;;;;;;9.05;4.60;;;;;;;2.67;55.46;100314.84;10386888;28;20045;-60
2023/03/15 19:04:20;;;;;;;9.60;4.20;;;;;;;2.60;55.93;100314.09;10389993;28;20045;-60
2023/03/15 19:09:23;;;;;;;8.68;5.00;;;;;;;2.49;56.26;100325.56;10387719;28;20671;-60
2023/03/15 19:14:25;;;;;;;9.55;5.35;;;;;;;2.36;56.59;100337.03;10388928;28;20083;-60
2023/03/15 19:19:26;;;;;;;8.63;5.15;;;;;;;2.29;56.83;100349.19;10389264;28;20060;-61
2023/03/15 19:24:30;;;;;;;8.32;5.25;;;;;;;2.23;57.22;100344.97;10386929;28;20392;-60
2023/03/15 19:29:32;;;;;;;10.80;5.00;;;;;;;2.15;57.39;100344.28;10391631;28;20053;-61
2023/03/15 19:34:34;;;;;;;12.63;5.45;;;;;;;2.05;57.48;100347.09;10386981;28;20049;-61
2023/03/15 19:39:35;;;;;;;10.98;4.93;;;;;;;1.95;57.67;100353.28;10388896;28;20053;-61
2023/03/15 19:44:37;;;;;;;10.02;4.60;;;;;;;1.88;58.16;100356.84;10397845;28;20045;-60
2023/03/15 19:49:40;;;;;;;9.02;4.97;;;;;;;1.83;58.44;100351.75;10387109;28;20057;-61
2023/03/15 19:54:41;;;;;;;7.20;4.47;;;;;;;1.76;58.43;100355.34;10389831;28;20418;-60
2023/03/15 19:59:43;;;;;;;11.50;4.55;;;;;;;1.69;58.27;100353.72;10386845;28;20053;-61
2023/03/15 20:04:44;;;;;;;9.70;4.75;;;;;;;1.38;58.75;100367.16;10388248;28;20072;-61
2023/03/15 20:09:46;;;;;;;11.45;4.93;;;;;;;1.38;59.09;100374.88;10390806;28;20048;-60
2023/03/15 20:14:48;;;;;;;12.10;6.10;;;;;;;1.45;59.12;100376.47;10390096;28;21073;-60
2023/03/15 20:19:49;;;;;;;8.20;4.75;;;;;;;1.43;59.13;100381.66;10384996;28;20387;-60
2023/03/15 20:24:51;;;;;;;10.00;5.40;;;;;;;1.30;59.39;100385.28;10391894;28;20045;-60
2023/03/15 20:29:55;;;;;;;14.13;6.97;;;;;;;1.09;59.38;100390.78;10390841;28;20048;-61
2023/03/15 20:34:57;;;;;;;16.20;7.82;;;;;;;1.04;59.53;100383.09;10390753;28;20068;-60
2023/03/15 20:39:59;;;;;;;11.10;6.28;;;;;;;1.13;60.01;100395.88;10392455;28;20045;-59
2023/03/15 20:45:03;;;;;;;12.02;6.40;;;;;;;1.16;59.94;100387.22;10383162;28;20515;-61
2023/03/15 20:50:06;;;;;;;11.30;5.78;;;;;;;1.19;60.15;100397.50;10385573;28;20049;-61
2023/03/15 20:55:09;;;;;;;12.07;7.63;;;;;;;1.18;60.15;100403.50;10385979;28;20045;-61
2023/03/15 21:00:19;;;;;;;12.02;8.00;;;;;;;1.16;60.35;100408.69;10390246;28;20041;-61
2023/03/15 21:05:23;;;;;;;15.82;8.52;;;;;;;1.08;59.91;100401.94;10386604;28;20045;-61
2023/03/15 21:10:24;;;;;;;15.70;9.50;;;;;;;0.87;60.04;100400.50;10382990;28;20378;-61
2023/03/15 21:15:26;;;;;;;14.02;7.40;;;;;;;0.58;61.01;100406.88;10383956;28;20961;-61
2023/03/15 21:20:28;;;;;;;14.90;7.32;;;;;;;0.64;61.28;100412.81;10387203;28;20152;-61
2023/03/15 21:25:31;;;;;;;13.95;6.50;;;;;;;0.70;61.23;100410.16;10389394;28;20511;-61
2023/03/15 21:30:33;;;;;;;10.23;6.20;;;;;;;0.70;61.22;100417.03;10390599;28;20465;-60
2023/03/15 21:35:34;;;;;;;10.10;5.82;;;;;;;0.66;61.16;100420.53;10373875;28;20036;-60
2023/03/15 21:40:36;;;;;;;12.05;6.40;;;;;;;0.66;61.57;100415.38;10389729;28;20588;-61
2023/03/15 21:45:38;;;;;;;11.88;7.60;;;;;;;0.64;61.53;100414.53;10395172;28;20052;-61
2023/03/15 21:50:40;;;;;;;13.77;7.15;;;;;;;0.56;61.80;100422.34;10398090;28;20145;-60
2023/03/15 21:55:44;;;;;;;13.68;6.63;;;;;;;0.44;61.82;100409.63;10399482;28;20488;-60
2023/03/15 22:00:46;;;;;;;10.25;5.32;;;;;;;0.39;62.06;100406.25;10394066;28;20053;-60
2023/03/15 22:05:48;;;;;;;9.15;6.55;;;;;;;0.36;62.02;100408.88;10378955;28;20072;-60
2023/03/15 22:10:55;;;;;;;13.27;6.35;;;;;;;0.35;62.31;100402.00;10409125;28;20049;-60
2023/03/15 22:15:56;;;;;;;11.05;6.57;;;;;;;0.32;62.17;100402.88;10395699;28;20048;-61
2023/03/15 22:20:58;;;;;;;13.15;7.20;;;;;;;0.25;61.91;100403.84;10394271;28;20410;-61
2023/03/15 22:26:00;;;;;;;10.77;6.70;;;;;;;0.15;62.40;100393.66;10396937;28;20047;-60
2023/03/15 22:31:02;;;;;;;14.25;7.30;;;;;;;0.14;62.38;100400.50;10397316;28;20132;-61
2023/03/15 22:36:04;;;;;;;11.52;7.40;;;;;;;0.05;62.40;100394.59;10391593;28;20282;-60
2023/03/15 22:41:08;;;;;;;12.73;6.95;;;;;;;-0.00;62.47;100396.34;10395003;28;20053;-61
2023/03/15 22:46:09;;;;;;;11.32;6.10;;;;;;;-0.17;62.32;100393.13;10392997;28;20054;-60
2023/03/15 22:51:14;;;;;;;12.18;6.32;;;;;;;-0.22;63.16;100394.84;10413388;28;20146;-61
2023/03/15 22:56:16;;;;;;;11.88;6.30;;;;;;;-0.28;62.47;100395.78;10431478;28;20055;-61
2023/03/15 23:01:18;;;;;;;12.07;6.03;;;;;;;-0.37;62.63;100401.84;10399163;28;20053;-61
2023/03/15 23:06:21;;;;;;;11.73;6.00;;;;;;;-0.46;62.55;100396.78;10430423;28;20044;-61
2023/03/15 23:11:22;;;;;;;12.88;6.32;;;;;;;-0.60;63.09;100400.31;10394132;28;20063;-60
2023/03/15 23:16:24;;;;;;;11.00;5.72;;;;;;;-0.47;63.18;100399.34;10392386;28;20049;-60
2023/03/15 23:21:25;;;;;;;12.10;6.65;;;;;;;-0.51;63.24;100403.66;10395449;28;20163;-60
2023/03/15 23:26:27;;;;;;;11.20;7.30;;;;;;;-0.43;63.29;100409.59;10392359;28;20072;-61
2023/03/15 23:31:29;;;;;;;13.93;7.68;;;;;;;-0.42;63.26;100410.44;10392212;28;20057;-60
2023/03/15 23:36:31;;;;;;;11.45;7.57;;;;;;;-0.44;63.41;100415.63;10393060;28;20088;-61